Heraklion Airport, Grčija

05:41 PM EEST on oktober 22, 2018 (GMT +0300)
Nikos Kazantzakis | | Change Station

Viš 128 ft 35.33 °N, 25.18 °E | Updated 21 minutes ago

Mostly Cloudy
Pretezno oblacno
70 °F
Feels Like 70 °F
N
5
Veter Spremenljivo Veter od SV

Danes
High -- | Low -- °F
--% Chance of Precip.
Yesterday
High -- | Low -- °F
Precip. -- v
Zračni tlak 29.95 v
Vidljivost 6.2 milje
Oblaki Few 2500 ft
Pretezno oblacno 8000 ft
Rosišče 64 °F
Vlažnost 83%
Padavine 0.00 v
Snow Depth Not available.
7:31 AM 6:35 PM
Naraščajoča luna, 95% visible
METAR LGIR 221420Z 05004KT 9999 FEW025 BKN080 21/18 Q1014 NOSIG
Zračni tlak 29.95 v
Vidljivost 6.2 milje
Oblaki Few 2500 ft
Pretezno oblacno 8000 ft
Rosišče 64 °F
Vlažnost 83%
Padavine 0.00 v
Snow Depth Not available.
7:31 AM 6:35 PM
Naraščajoča luna, 95% visible
METAR LGIR 221420Z 05004KT 9999 FEW025 BKN080 21/18 Q1014 NOSIG

Get Severe Weather Alerts

Thanks for signing up!

Be on the lookout for a verification email in your inbox.

You'll start receiving the daily forecast at 6 AM.

×

10-Day Weather Forecast

×

Almanac

Astronomija

Oct. 22, 2018 Rise Set
Actual Time
Civil Twilight
Nautical Twilight
Astronomical Twilight
Moon
Length Of Visible Light
Dolžina dneva
Tomorrow will be .
, % of the Moon is Illuminated

Današnji ekstremi

Country Highs Country Lows

Community

WunderPhotos

Category 6

Welcome to Category 6. This is the collective home for Weather Underground's featured writeups by Dr. Jeff Masters (right), Bob Henson (left), Chris Burt, and other regular contributors.

Nearby

Air Quality

  Air Quality AQ Index Pollutant
Not available.

Snow Depth

Station Depth Višina

Earthquake Activity

City Distance Mag. Time & Date
Minimum magnitude displayed is 2.5.

Coastal Water Temperatures

Mesto Temperatura

Stations

Nearby Weather Stations

Station Location Temp Občutek zaradi vetra Rosišče Vlažnost Veter Precip. Viš Obnovljeno Type